Qitai, China
Current Conditions -  °F | °C
As of 12:00 PM on Saturday 25 Oct 2014 (Local Time) from ZWWW Reporting Station
Clear Clear  
Wind Chill: 55°   Ceiling: Unl
Heat Index: 55°   Visibility: 6mi
Dew Point: 45°   Wind: 4mph
Humidity: 67%   Direction: 300°WNW
Pressure: 30.03"   Gusts: NA
Location:  44.02°N, 89.47°E
Report Text: ZWWW 250400Z 30002MPS 270V350 CAVOK 13/07 Q1017 NOSIG
Loading
Personal Weather Stations






























Interactive Weather Map
Tropical Storm Tracking
New forecast layout! Learn more

10-Day Weather Forecast

Advertisements
Track Severe Weather on mobile